Time;durP1;ratioP1;P1;durP2;ratioP2;P2;SDS_P1;SDS_P2;PMS_P1;PMS_P2;Temp;Humidity;BMP_temperature;BMP_pressure;BME280_temperature;BME280_humidity;BME280_pressure;Samples;Min_cycle;Max_cycle;Signal;HPM_P1;HPM_P2
2023/08/31 00:02:06;;;;;;;18.80;10.40;;;;;;;29.62;72.96;100689.22;4902717;28;68958;-38
2023/08/31 00:04:36;;;;;;;12.32;8.68;;;;;;;29.66;78.01;100706.69;4916683;28;65508;-40
2023/08/31 00:07:07;;;;;;;13.02;9.40;;;;;;;29.59;73.68;100689.66;4914229;28;69592;-39
2023/08/31 00:09:37;;;;;;;20.40;10.18;;;;;;;29.74;77.26;100719.97;4918595;28;66114;-39
2023/08/31 00:12:07;;;;;;;20.67;9.77;;;;;;;29.84;73.77;100720.31;4912101;28;69312;-39
2023/08/31 00:14:37;;;;;;;19.38;10.18;;;;;;;29.88;79.33;100733.41;4906329;28;66159;-40
2023/08/31 00:17:07;;;;;;;20.63;10.43;;;;;;;29.91;78.62;100725.69;4912253;28;70855;-39
2023/08/31 00:19:37;;;;;;;12.65;8.70;;;;;;;29.96;76.43;100735.84;4903878;28;66605;-38
2023/08/31 00:22:17;;;;;;;12.93;7.85;;;;;;;29.99;75.28;100730.84;4912526;28;70461;-38
2023/08/31 00:24:47;;;;;;;14.43;8.20;;;;;;;30.01;76.67;100730.63;4902092;28;66585;-39
2023/08/31 00:27:21;;;;;;;11.23;7.30;;;;;;;29.70;75.09;100680.03;4903360;28;69911;-39
2023/08/31 00:29:51;;;;;;;16.02;6.90;;;;;;;30.09;78.39;100732.22;4898138;28;66463;-39
2023/08/31 00:32:22;;;;;;;7.32;6.25;;;;;;;30.13;78.05;100736.97;4909833;28;70013;-38
2023/08/31 00:34:52;;;;;;;7.18;5.85;;;;;;;30.15;77.52;100745.72;4907008;28;66015;-39
2023/08/31 00:37:22;;;;;;;12.55;5.60;;;;;;;30.16;78.24;100743.84;4917459;28;69922;-40
2023/08/31 00:39:52;;;;;;;7.32;5.68;;;;;;;30.15;76.17;100737.59;4914309;28;66314;-40
2023/08/31 00:42:22;;;;;;;8.18;5.03;;;;;;;30.24;77.12;100757.97;4898046;28;69643;-40
2023/08/31 00:44:52;;;;;;;7.65;5.10;;;;;;;30.26;78.69;100760.47;4895483;28;66596;-40
2023/08/31 00:47:22;;;;;;;5.20;4.80;;;;;;;30.27;78.03;100773.75;4891596;28;69479;-39
2023/08/31 00:49:54;;;;;;;6.15;4.70;;;;;;;30.27;74.08;100773.75;4906804;28;66590;-39
2023/08/31 00:52:24;;;;;;;4.57;4.15;;;;;;;30.21;73.14;100763.78;4920765;28;70217;-39
2023/08/31 00:54:55;;;;;;;4.57;4.18;;;;;;;30.05;72.95;100742.66;4909162;28;66626;-39
2023/08/31 00:57:28;;;;;;;6.20;3.20;;;;;;;30.33;72.28;100782.03;4922191;28;69970;-39
2023/08/31 00:59:58;;;;;;;3.33;3.03;;;;;;;30.31;72.41;100778.72;4909349;28;66887;-39
2023/08/31 01:02:37;;;;;;;5.38;3.17;;;;;;;30.13;72.03;100755.91;4902275;28;69778;-40
2023/08/31 01:05:43;;;;;;;3.63;3.05;;;;;;;30.27;72.98;100797.28;4932873;28;68648;-40
2023/08/31 01:08:39;;;;;;;3.13;2.25;;;;;;;30.04;71.67;100746.41;4874768;29;70445;-39
2023/08/31 01:11:20;;;;;;;2.47;2.28;;;;;;;30.38;71.80;100806.59;4891527;28;66963;-40
2023/08/31 01:13:57;;;;;;;4.38;1.85;;;;;;;30.28;71.15;100785.41;4896800;28;69684;-39
2023/08/31 01:16:33;;;;;;;3.20;1.88;;;;;;;30.09;71.10;100753.88;4891815;28;66554;-40
2023/08/31 01:19:08;;;;;;;1.15;1.05;;;;;;;30.42;70.78;100821.31;4888596;28;71239;-39
2023/08/31 01:21:42;;;;;;;1.50;0.98;;;;;;;30.47;70.67;100822.31;4883785;28;66075;-40
2023/08/31 01:24:13;;;;;;;1.40;1.20;;;;;;;30.48;70.51;100825.88;4895658;28;70052;-39
2023/08/31 01:26:44;;;;;;;1.65;1.00;;;;;;;30.46;70.75;100819.84;4888499;28;66244;-39
2023/08/31 01:29:14;;;;;;;2.65;0.90;;;;;;;30.47;69.95;100816.09;4886289;28;70257;-40
2023/08/31 01:31:45;;;;;;;1.50;0.93;;;;;;;30.25;70.18;100781.25;4890898;28;66964;-39
2023/08/31 01:34:15;;;;;;;1.50;1.10;;;;;;;30.54;70.69;100821.47;4896563;28;70144;-38
2023/08/31 01:36:52;;;;;;;1.10;0.90;;;;;;;30.18;70.63;100753.41;4893921;28;66906;-40
2023/08/31 01:39:59;;;;;;;1.42;0.85;;;;;;;30.46;71.37;100809.03;4889686;28;69543;-41
2023/08/31 01:42:31;;;;;;;2.25;1.00;;;;;;;30.59;70.22;100825.19;4886656;28;66142;-40
2023/08/31 01:45:04;;;;;;;1.30;1.00;;;;;;;30.45;70.09;100774.88;4881633;29;70313;-40
2023/08/31 01:47:33;;;;;;;;;;;;;;;30.34;72.37;100808.06;4896922;28;66204;-39
2023/08/31 01:50:04;;;;;;;1.40;0.60;;;;;;;30.60;70.34;100805.16;4885379;28;70307;-40
2023/08/31 01:52:34;;;;;;;0.70;0.50;;;;;;;30.60;69.99;100805.16;4893054;28;66240;-39
2023/08/31 01:55:06;;;;;;;0.90;0.60;;;;;;;30.60;69.96;100809.75;4899222;28;70589;-39
2023/08/31 01:57:37;;;;;;;0.60;0.50;;;;;;;30.65;69.41;100818.88;4878259;28;66093;-39
2023/08/31 02:00:16;;;;;;;1.20;0.70;;;;;;;30.36;69.66;100771.59;4884852;28;70022;-39
2023/08/31 02:02:48;;;;;;;1.40;0.73;;;;;;;30.69;69.64;100809.25;4900092;28;66466;-40
2023/08/31 02:05:18;;;;;;;2.28;0.52;;;;;;;30.67;69.87;100805.94;4895660;28;70434;-40
2023/08/31 02:07:48;;;;;;;0.80;0.50;;;;;;;30.74;69.36;100805.88;4891659;28;65258;-40
2023/08/31 02:10:19;;;;;;;1.42;0.70;;;;;;;30.72;69.36;100794.44;4899061;28;69732;-39
2023/08/31 02:12:49;;;;;;;0.95;0.55;;;;;;;30.77;69.49;100793.78;4899593;28;65239;-39
2023/08/31 02:15:19;;;;;;;1.27;0.68;;;;;;;30.81;69.34;100795.00;4874212;29;70576;-40
2023/08/31 02:17:49;;;;;;;0.77;0.40;;;;;;;30.83;69.40;100787.50;4893050;28;66279;-39
2023/08/31 02:20:20;;;;;;;1.33;0.50;;;;;;;30.85;69.37;100785.41;4887421;29;70413;-39
2023/08/31 02:22:50;;;;;;;1.33;0.63;;;;;;;30.86;69.30;100790.59;4902420;28;66255;-39
2023/08/31 02:25:20;;;;;;;0.60;0.60;;;;;;;30.90;69.17;100793.69;4877504;28;70096;-40
2023/08/31 02:27:50;;;;;;;1.33;0.63;;;;;;;30.88;69.43;100776.84;4892290;28;66407;-40
2023/08/31 02:30:22;;;;;;;1.08;0.52;;;;;;;30.93;69.21;100780.53;4893365;28;70865;-40
2023/08/31 02:32:52;;;;;;;;;;;;;;;30.67;70.77;100784.28;4900774;28;66075;-40
2023/08/31 02:35:22;;;;;;;0.75;0.45;;;;;;;30.92;69.07;100775.31;4891956;28;70589;-39
2023/08/31 02:37:52;;;;;;;1.10;0.70;;;;;;;30.96;69.05;100760.31;4897681;28;66493;-40
2023/08/31 02:40:22;;;;;;;0.52;0.50;;;;;;;30.99;69.08;100759.84;4889509;28;70342;-40
2023/08/31 02:42:54;;;;;;;1.30;0.80;;;;;;;31.01;68.94;100759.59;4890607;28;65433;-38
2023/08/31 02:45:25;;;;;;;0.80;0.50;;;;;;;31.00;68.88;100750.66;4898090;28;70373;-41
2023/08/31 02:47:56;;;;;;;0.63;0.40;;;;;;;31.01;69.08;100756.91;4889241;29;66633;-40
2023/08/31 02:50:26;;;;;;;1.25;0.60;;;;;;;31.05;68.85;100767.06;4896590;28;69780;-39
2023/08/31 02:52:57;;;;;;;1.02;0.50;;;;;;;31.05;68.67;100748.13;4893514;28;65333;-41
2023/08/31 02:55:27;;;;;;;0.73;0.50;;;;;;;31.10;68.87;100756.41;4872023;29;69144;-39
2023/08/31 02:57:58;;;;;;;1.48;0.95;;;;;;;30.99;71.24;100738.19;4891048;28;66423;-40
2023/08/31 03:00:28;;;;;;;3.65;2.22;;;;;;;31.14;72.99;100746.75;4891320;28;69588;-40
2023/08/31 03:02:58;;;;;;;4.75;2.65;;;;;;;31.05;74.03;100731.84;4893541;28;65981;-42
2023/08/31 03:05:30;;;;;;;3.57;3.27;;;;;;;30.94;74.72;100717.19;4890726;28;69972;-40
2023/08/31 03:08:00;;;;;;;6.50;3.60;;;;;;;31.10;75.51;100737.44;4908400;28;66939;-40
2023/08/31 03:10:30;;;;;;;5.63;4.15;;;;;;;31.07;75.78;100732.47;4914420;28;70235;-40
2023/08/31 03:13:00;;;;;;;6.20;3.90;;;;;;;31.11;75.83;100739.06;4913779;28;66170;-40
2023/08/31 03:15:36;;;;;;;3.50;3.20;;;;;;;30.89;76.26;100694.53;4904449;28;70018;-40
2023/08/31 03:18:07;;;;;;;8.20;4.03;;;;;;;30.98;76.36;100708.59;4913285;28;66357;-41
2023/08/31 03:20:38;;;;;;;5.13;3.50;;;;;;;31.09;76.28;100708.69;4894819;28;70211;-40
2023/08/31 03:23:09;;;;;;;4.90;3.88;;;;;;;31.12;76.63;100704.69;4913847;28;65653;-41
2023/08/31 03:25:40;;;;;;;8.77;3.38;;;;;;;31.06;76.05;100684.75;4899581;28;69780;-40
2023/08/31 03:28:10;;;;;;;4.20;3.33;;;;;;;31.22;76.59;100704.16;4917093;28;66327;-42
2023/08/31 03:30:40;;;;;;;4.53;4.10;;;;;;;31.24;76.59;100704.78;4917446;28;70570;-40
2023/08/31 03:33:10;;;;;;;4.53;3.22;;;;;;;31.26;76.35;100694.50;4918876;28;66452;-43
2023/08/31 03:35:41;;;;;;;4.93;3.83;;;;;;;31.27;76.17;100685.34;4914014;28;69898;-41
2023/08/31 03:38:11;;;;;;;7.28;3.33;;;;;;;31.28;75.89;100687.00;4902157;28;66775;-41
2023/08/31 03:40:41;;;;;;;5.30;3.65;;;;;;;31.28;76.17;100698.66;4912798;28;69840;-41
2023/08/31 03:43:11;;;;;;;4.07;3.38;;;;;;;31.32;75.69;100737.81;4914172;28;66044;-41
2023/08/31 03:45:41;;;;;;;4.90;3.80;;;;;;;31.32;76.42;100716.13;4913330;28;69480;-41
2023/08/31 03:48:11;;;;;;;3.72;3.42;;;;;;;31.34;76.17;100713.16;4908896;28;66225;-40
2023/08/31 03:50:42;;;;;;;4.15;3.75;;;;;;;31.35;76.54;100725.69;4907435;28;70364;-41
2023/08/31 03:53:12;;;;;;;4.20;3.15;;;;;;;31.33;76.81;100706.94;4910446;28;66542;-41
2023/08/31 03:55:42;;;;;;;4.18;3.70;;;;;;;31.29;77.07;100715.75;4896032;28;69099;-42
2023/08/31 03:58:16;;;;;;;3.55;3.17;;;;;;;31.36;76.85;100722.75;4900413;28;66205;-41
2023/08/31 04:00:52;;;;;;;4.07;3.53;;;;;;;31.37;76.56;100715.47;4895992;28;69815;-41
2023/08/31 04:03:23;;;;;;;5.43;3.53;;;;;;;31.38;76.25;100698.16;4906709;28;66909;-43
2023/08/31 04:05:56;;;;;;;;;;;;;;;31.22;77.13;100682.47;4921994;28;70489;-42
2023/08/31 04:08:26;;;;;;;;;;;;;;;31.15;77.57;100691.53;4902757;28;66335;-40
2023/08/31 04:10:56;;;;;;;4.13;3.38;;;;;;;31.29;76.47;100683.25;4896480;28;69793;-41
2023/08/31 04:13:26;;;;;;;3.88;3.10;;;;;;;31.38;75.50;100703.59;4910250;28;66706;-41
2023/08/31 04:15:57;;;;;;;4.97;2.90;;;;;;;31.39;75.18;100699.81;4878914;29;70464;-40
2023/08/31 04:18:27;;;;;;;3.78;3.13;;;;;;;31.42;74.80;100680.38;4926054;28;66096;-41
2023/08/31 04:20:59;;;;;;;5.40;3.22;;;;;;;31.44;74.49;100680.16;4907778;28;70391;-41
2023/08/31 04:23:30;;;;;;;4.03;3.22;;;;;;;31.46;74.39;100680.75;4918279;28;66554;-40
2023/08/31 04:26:00;;;;;;;3.55;2.85;;;;;;;31.46;74.29;100688.91;4910494;28;70428;-41
2023/08/31 04:28:30;;;;;;;3.10;2.80;;;;;;;31.41;74.43;100659.75;4931264;28;66375;-43
2023/08/31 04:31:00;;;;;;;3.88;3.38;;;;;;;31.42;75.85;100674.94;4926759;28;68856;-40
2023/08/31 04:33:30;;;;;;;4.15;3.72;;;;;;;31.38;73.02;100660.22;4911624;28;65409;-40
2023/08/31 04:36:00;;;;;;;6.60;3.30;;;;;;;31.27;71.41;100658.25;4921608;28;70231;-42
2023/08/31 04:38:31;;;;;;;4.53;3.63;;;;;;;31.15;69.70;100655.47;4916843;28;65929;-39
2023/08/31 04:41:02;;;;;;;3.78;3.40;;;;;;;31.01;68.30;100649.41;4910171;28;71785;-39
2023/08/31 04:43:32;;;;;;;3.50;3.20;;;;;;;30.89;66.71;100649.31;4912418;28;66319;-38
2023/08/31 04:46:04;;;;;;;3.47;3.17;;;;;;;30.84;66.13;100646.47;4908556;28;70741;-38
2023/08/31 04:48:35;;;;;;;3.80;3.30;;;;;;;30.69;64.72;100638.66;4909014;28;66607;-37
2023/08/31 04:51:06;;;;;;;2.97;2.73;;;;;;;30.51;63.86;100627.84;4909352;28;71086;-38
2023/08/31 04:53:36;;;;;;;3.72;3.42;;;;;;;30.50;62.87;100632.41;4913319;28;65640;-38
2023/08/31 04:56:08;;;;;;;6.82;2.80;;;;;;;30.45;62.48;100632.28;4909605;28;69884;-38
2023/08/31 04:58:38;;;;;;;3.70;2.97;;;;;;;30.41;61.52;100630.22;4912336;28;66914;-38
2023/08/31 05:01:09;;;;;;;6.03;3.00;;;;;;;30.36;61.76;100630.06;4907200;28;70093;-37
2023/08/31 05:03:39;;;;;;;3.08;2.70;;;;;;;30.33;61.20;100608.88;4914681;28;67794;-39
2023/08/31 05:06:09;;;;;;;6.00;2.55;;;;;;;30.25;60.51;100581.03;4921356;28;70376;-38
2023/08/31 05:08:39;;;;;;;2.67;1.85;;;;;;;30.28;59.63;100579.75;4911839;28;66151;-37
2023/08/31 05:11:09;;;;;;;6.05;2.08;;;;;;;30.27;59.52;100594.34;4910440;28;70277;-37
2023/08/31 05:13:42;;;;;;;2.28;1.98;;;;;;;30.20;58.64;100582.72;4916519;28;65736;-37
2023/08/31 05:16:12;;;;;;;2.17;1.98;;;;;;;30.11;58.01;100567.84;4910681;28;69658;-38
2023/08/31 05:18:42;;;;;;;1.70;1.50;;;;;;;30.19;57.96;100581.91;4889373;28;66005;-37
2023/08/31 05:21:12;;;;;;;2.20;1.58;;;;;;;30.14;57.15;100584.44;4903023;28;70412;-37
2023/08/31 05:23:42;;;;;;;1.60;1.30;;;;;;;30.15;57.88;100579.88;4922053;28;66807;-37
2023/08/31 05:26:12;;;;;;;1.60;1.48;;;;;;;29.87;56.12;100545.19;4915098;28;70435;-37
2023/08/31 05:28:43;;;;;;;1.50;1.30;;;;;;;30.07;56.05;100562.03;4920473;28;67038;-36
2023/08/31 05:31:13;;;;;;;1.33;1.00;;;;;;;30.03;55.31;100558.13;4903748;28;69984;-38
2023/08/31 05:33:43;;;;;;;1.27;1.00;;;;;;;30.05;54.99;100569.53;4922631;28;65251;-35
2023/08/31 05:36:13;;;;;;;2.00;1.23;;;;;;;30.03;54.56;100558.13;4918514;28;70401;-37
2023/08/31 05:38:43;;;;;;;1.65;1.10;;;;;;;29.94;54.27;100537.81;4911101;28;66616;-37
2023/08/31 05:41:13;;;;;;;1.42;1.27;;;;;;;29.98;54.13;100545.28;4915349;28;70370;-38
2023/08/31 05:43:43;;;;;;;3.97;1.30;;;;;;;29.97;54.33;100540.06;4920247;28;66392;-37
2023/08/31 05:46:13;;;;;;;1.50;1.27;;;;;;;29.94;54.93;100608.13;4914532;28;69750;-36
2023/08/31 05:48:43;;;;;;;3.88;1.75;;;;;;;29.95;55.60;100617.88;4900250;28;66043;-36
2023/08/31 05:51:13;;;;;;;2.25;1.52;;;;;;;29.94;56.07;100616.25;4918628;28;69870;-36
2023/08/31 05:53:44;;;;;;;1.40;1.30;;;;;;;29.94;56.31;100621.66;4901511;28;65539;-36
2023/08/31 05:56:13;;;;;;;4.93;1.42;;;;;;;29.89;55.92;100608.78;4920658;28;70359;-35
2023/08/31 05:58:44;;;;;;;3.08;1.27;;;;;;;29.83;55.77;100588.03;4915104;28;66447;-36
2023/08/31 06:01:14;;;;;;;1.50;1.10;;;;;;;29.78;55.69;100579.75;4907051;28;69177;-36
2023/08/31 06:03:44;;;;;;;1.20;1.02;;;;;;;29.81;55.22;100593.69;4919091;28;66531;-36
2023/08/31 06:06:14;;;;;;;1.25;1.10;;;;;;;29.78;55.26;100585.16;4924970;28;70559;-35
2023/08/31 06:08:45;;;;;;;1.48;1.08;;;;;;;29.77;55.06;100573.53;4920407;28;65407;-35
2023/08/31 06:11:15;;;;;;;4.05;0.80;;;;;;;29.75;54.81;100564.78;4924301;28;69628;-36
2023/08/31 06:13:45;;;;;;;1.98;0.70;;;;;;;29.73;54.75;100556.09;4920591;28;65284;-36
2023/08/31 06:16:15;;;;;;;0.95;0.75;;;;;;;29.71;54.75;100551.97;4923621;28;70021;-36
2023/08/31 06:18:45;;;;;;;1.92;0.75;;;;;;;29.69;54.40;100541.34;4931030;28;65632;-36
2023/08/31 06:21:15;;;;;;;0.82;0.50;;;;;;;29.67;54.22;100534.50;4908721;28;69699;-36
2023/08/31 06:23:45;;;;;;;1.92;0.70;;;;;;;29.65;54.00;100529.34;4914451;28;65941;-37
2023/08/31 06:26:15;;;;;;;0.90;0.65;;;;;;;29.64;53.47;100534.97;4918940;28;70519;-37
2023/08/31 06:28:45;;;;;;;1.45;0.63;;;;;;;29.57;53.30;100529.59;4914333;28;66319;-38
2023/08/31 06:31:15;;;;;;;0.60;0.50;;;;;;;29.55;53.93;100523.56;4920830;28;69864;-37
2023/08/31 06:33:45;;;;;;;1.40;0.90;;;;;;;29.56;53.50;100531.47;4918591;28;65361;-37
2023/08/31 06:36:15;;;;;;;0.90;0.60;;;;;;;29.54;53.47;100524.63;4919216;28;69552;-36
2023/08/31 06:38:45;;;;;;;0.98;0.60;;;;;;;29.54;54.35;100525.44;4916251;28;66591;-37
2023/08/31 06:41:15;;;;;;;1.88;0.60;;;;;;;29.51;53.55;100525.88;4919123;28;69471;-37
2023/08/31 06:43:45;;;;;;;1.33;0.70;;;;;;;29.49;53.59;100516.34;4916177;28;65329;-37
2023/08/31 06:46:15;;;;;;;1.15;0.80;;;;;;;29.45;52.78;100509.69;4920920;28;69323;-38
2023/08/31 06:48:53;;;;;;;1.08;0.90;;;;;;;29.44;52.79;100497.25;4923688;28;66469;-38
2023/08/31 06:51:24;;;;;;;;;;;;;;;29.21;56.01;100485.16;4921978;28;70003;-38
2023/08/31 06:53:54;;;;;;;2.38;1.05;;;;;;;29.45;56.19;100479.97;4921227;28;66067;-37
2023/08/31 06:56:24;;;;;;;3.70;1.00;;;;;;;29.40;55.05;100459.03;4900490;29;69964;-39
2023/08/31 06:58:55;;;;;;;2.35;1.13;;;;;;;29.42;54.83;100461.50;4913315;28;66808;-38
2023/08/31 07:01:26;;;;;;;1.33;0.82;;;;;;;29.40;54.53;100454.47;4892087;28;70154;-37
2023/08/31 07:03:57;;;;;;;1.23;0.95;;;;;;;29.18;54.08;100418.06;4912142;28;66348;-35
2023/08/31 07:06:27;;;;;;;7.18;0.80;;;;;;;29.38;53.79;100453.84;4915627;28;71653;-37
2023/08/31 07:08:57;;;;;;;2.22;0.90;;;;;;;29.38;53.91;100463.84;4917149;28;66008;-37
2023/08/31 07:11:27;;;;;;;5.75;1.25;;;;;;;29.35;53.19;100450.75;4915148;28;70872;-36
2023/08/31 07:13:59;;;;;;;3.25;0.80;;;;;;;29.37;53.42;100449.50;4920258;28;66220;-40
2023/08/31 07:16:29;;;;;;;1.40;0.50;;;;;;;29.27;52.83;100438.34;4897165;28;69556;-36
2023/08/31 07:18:59;;;;;;;2.55;0.70;;;;;;;29.33;52.52;100450.97;4912672;28;66531;-36
2023/08/31 07:21:29;;;;;;;1.65;0.70;;;;;;;29.32;52.77;100457.44;4915033;28;69767;-37
2023/08/31 07:23:59;;;;;;;1.75;0.65;;;;;;;29.33;52.57;100452.84;4911105;28;66860;-36
2023/08/31 07:26:30;;;;;;;2.03;0.80;;;;;;;29.33;52.46;100452.84;4909252;28;69151;-38
2023/08/31 07:29:04;;;;;;;1.70;0.75;;;;;;;29.36;52.22;100463.22;4908636;28;66113;-37
2023/08/31 07:31:34;;;;;;;3.50;0.70;;;;;;;29.36;52.32;100461.38;4923734;28;70546;-37
2023/08/31 07:34:04;;;;;;;0.88;0.50;;;;;;;29.33;52.12;100459.06;4916875;28;66368;-35
2023/08/31 07:36:35;;;;;;;0.75;0.60;;;;;;;29.36;51.71;100466.78;4914898;28;70176;-37
2023/08/31 07:39:05;;;;;;;1.98;0.50;;;;;;;29.36;51.95;100482.97;4901814;28;65632;-37
2023/08/31 07:41:35;;;;;;;1.15;0.70;;;;;;;29.37;51.66;100476.53;4899555;28;68893;-36
2023/08/31 07:44:06;;;;;;;0.70;0.60;;;;;;;29.31;51.48;100474.69;4911555;28;66450;-36
2023/08/31 07:46:36;;;;;;;0.70;0.50;;;;;;;29.37;51.72;100481.91;4920755;28;70118;-36
2023/08/31 07:49:06;;;;;;;11.93;0.47;;;;;;;29.31;52.23;100493.63;4916672;28;65917;-37
2023/08/31 07:51:36;;;;;;;1.10;0.70;;;;;;;29.32;51.30;100506.06;4892516;28;70316;-37
2023/08/31 07:54:06;;;;;;;5.97;0.40;;;;;;;29.30;51.34;100501.91;4912390;28;65257;-35
2023/08/31 07:56:36;;;;;;;0.85;0.50;;;;;;;29.33;51.44;100506.88;4915424;28;70634;-36
2023/08/31 07:59:08;;;;;;;0.85;0.40;;;;;;;29.36;51.67;100507.28;4912779;28;66304;-36
2023/08/31 08:01:38;;;;;;;0.57;0.40;;;;;;;29.35;51.56;100513.72;4908874;28;70871;-36
2023/08/31 08:04:08;;;;;;;7.03;0.75;;;;;;;29.36;51.25;100509.16;4911944;28;67924;-36
2023/08/31 08:06:38;;;;;;;0.82;0.40;;;;;;;29.35;51.22;100513.72;4902054;28;69580;-36
2023/08/31 08:09:08;;;;;;;1.27;0.50;;;;;;;29.32;51.42;100511.47;4915603;28;66500;-37
2023/08/31 08:11:38;;;;;;;1.40;0.50;;;;;;;29.36;51.84;100528.91;4893965;28;71201;-40
2023/08/31 08:14:08;;;;;;;0.80;0.40;;;;;;;29.35;51.31;100521.84;4914301;28;66537;-37
2023/08/31 08:16:38;;;;;;;0.57;0.50;;;;;;;29.37;52.06;100519.75;4912423;28;70390;-35
2023/08/31 08:19:08;;;;;;;0.50;0.30;;;;;;;29.34;51.69;100509.38;4917125;28;66276;-36
2023/08/31 08:21:38;;;;;;;1.55;0.40;;;;;;;29.34;51.60;100516.66;4915361;28;69920;-36
2023/08/31 08:24:08;;;;;;;0.73;0.50;;;;;;;29.26;51.58;100498.00;4917184;28;66604;-36
2023/08/31 08:26:38;;;;;;;4.15;0.40;;;;;;;29.31;51.79;100499.00;4922973;28;70568;-37
2023/08/31 08:29:09;;;;;;;0.65;0.40;;;;;;;29.32;51.49;100500.66;4903287;28;65727;-36
2023/08/31 08:31:39;;;;;;;7.05;0.47;;;;;;;29.29;51.66;100489.47;4920024;28;70168;-37
2023/08/31 08:34:09;;;;;;;1.77;0.40;;;;;;;29.28;51.77;100491.34;4916736;28;66688;-36
2023/08/31 08:36:39;;;;;;;1.20;0.50;;;;;;;29.28;51.33;100480.53;4920575;28;70413;-36
2023/08/31 08:39:09;;;;;;;3.35;0.40;;;;;;;29.25;51.19;100467.44;4915746;28;66966;-36
2023/08/31 08:41:41;;;;;;;1.30;0.55;;;;;;;29.28;51.04;100460.78;4905412;28;70363;-38
2023/08/31 08:44:14;;;;;;;2.17;0.70;;;;;;;29.24;51.22;100459.59;4898463;28;65845;-36
2023/08/31 08:46:47;;;;;;;1.35;0.50;;;;;;;28.81;51.22;100385.50;4900255;28;70416;-36
2023/08/31 08:49:18;;;;;;;1.33;0.60;;;;;;;29.27;50.75;100470.75;4899016;28;65964;-36
2023/08/31 08:51:50;;;;;;;3.03;0.60;;;;;;;29.23;51.20;100461.47;4919319;28;69767;-37
2023/08/31 08:54:22;;;;;;;0.98;0.55;;;;;;;29.18;50.40;100450.47;4896205;28;66613;-38
2023/08/31 08:56:52;;;;;;;1.23;0.60;;;;;;;29.26;50.61;100457.50;4913148;28;69053;-38
2023/08/31 08:59:24;;;;;;;1.42;0.50;;;;;;;29.25;50.74;100464.75;4898487;28;66271;-38
2023/08/31 09:01:54;;;;;;;1.10;0.60;;;;;;;29.29;51.69;100473.25;4910514;28;70179;-37
2023/08/31 09:04:24;;;;;;;3.03;0.50;;;;;;;29.25;50.91;100472.84;4925532;28;66376;-36
2023/08/31 09:06:54;;;;;;;3.90;0.50;;;;;;;29.23;50.87;100474.97;4909608;28;69364;-36
2023/08/31 09:09:24;;;;;;;3.90;0.50;;;;;;;29.25;51.50;100467.44;4910380;28;66710;-36
2023/08/31 09:11:55;;;;;;;2.20;0.75;;;;;;;29.31;52.37;100466.59;4911621;28;70210;-38
2023/08/31 09:14:26;;;;;;;1.25;0.80;;;;;;;29.39;55.66;100463.63;4911067;28;66361;-39
2023/08/31 09:16:56;;;;;;;1.52;0.95;;;;;;;29.56;58.10;100457.63;4908035;28;69296;-38
2023/08/31 09:19:29;;;;;;;1.45;1.20;;;;;;;29.50;59.89;100426.09;4889505;28;65118;-37
2023/08/31 09:21:59;;;;;;;1.95;1.30;;;;;;;29.77;60.90;100462.69;4904175;28;69989;-37
2023/08/31 09:24:39;;;;;;;1.55;1.10;;;;;;;29.87;61.40;100458.66;4913275;28;66374;-37
2023/08/31 09:27:11;;;;;;;2.60;1.13;;;;;;;29.76;61.68;100430.47;4904001;28;70043;-40
2023/08/31 09:29:45;;;;;;;2.33;1.42;;;;;;;30.04;63.90;100459.72;4886391;28;65471;-40
2023/08/31 09:32:19;;;;;;;1.80;1.10;;;;;;;30.11;63.84;100460.44;4906700;28;70936;-38
2023/08/31 09:34:50;;;;;;;4.03;1.30;;;;;;;30.16;69.58;100457.91;4891874;28;65040;-40
2023/08/31 09:37:34;;;;;;;5.55;2.00;;;;;;;30.26;70.84;100458.25;4876280;29;69105;-41
2023/08/31 09:40:04;;;;;;;1.75;1.65;;;;;;;30.29;71.34;100462.38;4910374;28;66791;-40
2023/08/31 09:42:38;;;;;;;3.92;1.98;;;;;;;30.14;71.75;100426.72;4915072;28;70277;-40
2023/08/31 09:45:09;;;;;;;3.70;2.42;;;;;;;30.34;72.33;100464.38;4909432;28;66356;-40
2023/08/31 09:47:39;;;;;;;5.38;2.03;;;;;;;30.39;69.37;100468.06;4909481;28;71660;-39
2023/08/31 09:50:11;;;;;;;2.08;1.67;;;;;;;30.12;68.23;100424.25;4918000;28;65536;-39
2023/08/31 09:52:44;;;;;;;5.13;1.95;;;;;;;30.37;68.13;100453.09;4918978;28;70464;-38
2023/08/31 09:55:17;;;;;;;6.10;3.40;;;;;;;30.45;69.47;100458.22;4914731;28;66447;-38
2023/08/31 09:57:49;;;;;;;6.95;4.22;;;;;;;30.56;69.75;100462.84;4910301;28;70201;-39
2023/08/31 10:00:37;;;;;;;6.03;3.97;;;;;;;30.54;70.58;100459.56;4909994;28;66573;-39
2023/08/31 10:03:08;;;;;;;5.93;4.05;;;;;;;30.68;70.89;100492.72;4909245;28;69925;-38
2023/08/31 10:05:39;;;;;;;5.35;3.92;;;;;;;30.70;72.06;100496.84;4909784;28;66300;-40
2023/08/31 10:08:09;;;;;;;8.07;3.97;;;;;;;30.72;74.15;100494.72;4911177;28;69820;-42
2023/08/31 10:10:40;;;;;;;7.75;3.92;;;;;;;30.78;77.91;100497.56;4913008;28;66559;-38
2023/08/31 10:13:12;;;;;;;9.68;4.82;;;;;;;30.68;78.49;100490.00;4913747;28;71871;-41
2023/08/31 10:15:44;;;;;;;10.45;3.92;;;;;;;30.71;78.96;100495.78;4910981;28;66597;-41
2023/08/31 10:18:14;;;;;;;11.30;3.55;;;;;;;30.73;78.76;100498.28;4913659;28;69075;-39
2023/08/31 10:20:46;;;;;;;5.75;3.72;;;;;;;30.70;79.56;100499.56;4915977;28;65353;-39
2023/08/31 10:23:17;;;;;;;7.50;3.85;;;;;;;30.61;78.82;100481.94;4915826;28;70071;-41
2023/08/31 10:25:49;;;;;;;7.47;3.60;;;;;;;30.69;80.32;100500.59;4929323;28;64287;-42
2023/08/31 10:28:25;;;;;;;5.50;3.55;;;;;;;30.71;79.90;100497.66;4919120;28;70313;-41
2023/08/31 10:31:08;;;;;;;3.83;3.35;;;;;;;30.72;78.80;100505.53;4916919;28;66927;-40
2023/08/31 10:33:47;;;;;;;7.15;3.38;;;;;;;30.60;78.52;100484.91;4914890;28;68980;-40
2023/08/31 10:36:19;;;;;;;3.83;3.33;;;;;;;30.68;79.06;100512.47;4913915;28;65629;-41
2023/08/31 10:38:58;;;;;;;4.57;3.05;;;;;;;30.67;79.21;100508.13;4916963;28;70500;-41
2023/08/31 10:41:35;;;;;;;3.42;2.92;;;;;;;30.41;79.00;100465.16;4917881;28;66210;-38
2023/08/31 10:44:23;;;;;;;6.40;2.60;;;;;;;30.71;79.62;100514.72;4915961;28;70042;-40
2023/08/31 10:46:54;;;;;;;6.38;2.58;;;;;;;30.79;79.24;100512.78;4900705;28;66373;-40
2023/08/31 10:49:25;;;;;;;2.92;2.20;;;;;;;30.80;79.41;100517.16;4910205;28;69705;-41
2023/08/31 10:51:57;;;;;;;2.47;1.93;;;;;;;30.82;79.81;100515.88;4916307;28;66500;-41
2023/08/31 10:54:35;;;;;;;5.55;2.10;;;;;;;30.87;78.54;100521.44;4909955;28;70304;-40
2023/08/31 10:57:06;;;;;;;1.83;1.65;;;;;;;30.86;79.55;100517.06;4912728;28;65389;-40
2023/08/31 10:59:53;;;;;;;6.40;2.23;;;;;;;30.50;79.75;100463.78;4912167;28;71231;-43
2023/08/31 11:02:34;;;;;;;3.00;2.38;;;;;;;30.75;79.59;100495.31;4914449;28;66662;-41
2023/08/31 11:05:07;;;;;;;9.75;2.13;;;;;;;30.91;79.29;100529.91;4912698;28;70911;-42
2023/08/31 11:07:42;;;;;;;4.82;2.47;;;;;;;30.67;78.81;100508.13;4910913;28;65583;-43
2023/08/31 11:10:20;;;;;;;4.03;1.90;;;;;;;30.93;78.91;100549.50;4911414;28;70604;-41
2023/08/31 11:12:56;;;;;;;5.28;2.25;;;;;;;30.60;79.43;100496.53;4910199;28;65300;-42
2023/08/31 11:15:27;;;;;;;10.32;1.85;;;;;;;30.58;79.29;100504.06;4907148;28;70181;-42
2023/08/31 11:17:57;;;;;;;2.35;1.85;;;;;;;30.93;79.13;100571.16;4917156;28;65338;-41
2023/08/31 11:20:31;;;;;;;2.00;1.80;;;;;;;30.96;79.08;100569.88;4916407;28;70061;-43
2023/08/31 11:23:02;;;;;;;2.83;2.30;;;;;;;30.90;78.83;100571.63;4910611;28;66616;-43
2023/08/31 11:25:33;;;;;;;6.78;2.20;;;;;;;30.89;78.43;100569.94;4909317;28;69873;-42
2023/08/31 11:28:06;;;;;;;3.05;1.92;;;;;;;30.65;78.60;100531.88;4915712;28;64598;-43
2023/08/31 11:30:37;;;;;;;4.10;2.60;;;;;;;30.97;78.67;100588.59;4899752;28;70448;-42
2023/08/31 11:33:08;;;;;;;6.85;2.78;;;;;;;30.98;78.68;100589.41;4896462;28;66648;-43
2023/08/31 11:35:46;;;;;;;6.53;2.38;;;;;;;30.97;79.11;100594.00;4900654;28;70650;-42
2023/08/31 11:38:17;;;;;;;3.35;2.72;;;;;;;30.64;79.00;100551.88;4916494;28;66323;-41
2023/08/31 11:40:47;;;;;;;3.67;2.30;;;;;;;30.97;79.28;100610.25;4912287;28;70268;-41
2023/08/31 11:43:20;;;;;;;5.45;2.50;;;;;;;31.02;80.01;100615.81;4892949;28;65141;-44
2023/08/31 11:45:51;;;;;;;5.90;2.65;;;;;;;30.92;79.77;100608.25;4909453;28;69162;-45
2023/08/31 11:48:21;;;;;;;3.17;2.53;;;;;;;31.03;79.95;100638.31;4912177;28;66430;-43